ADDS METAR Data INFO
IDs: Format: Raw Decoded Include TAF

Data at: 0752 UTC 17 Oct 2017

KVIH 170653Z AUTO 19007KT 10SM CLR 06/03 A3029 RMK AO2 SLP256 T00610028 $
KVIH 170553Z AUTO 21005KT 10SM CLR 07/03 A3030 RMK AO2 SLP261 T00670028 10117 20067 401890033 55004 $
KVIH 170453Z AUTO 17006KT 10SM CLR 08/03 A3030 RMK AO2 SLP259 T00830033 $
KVIH 170353Z AUTO 16007KT 10SM CLR 08/03 A3031 RMK AO2 SLP263 T00830033 $
KVIH 170253Z AUTO 20004KT 10SM CLR 09/04 A3031 RMK AO2 SLP266 T00940039 53006 $
KVIH 170153Z AUTO 21003KT 10SM CLR 09/04 A3030 RMK AO2 SLP262 T00940044 $
KVIH 170053Z AUTO 00000KT 10SM CLR 09/05 A3030 RMK AO2 SLP265 T00940050 $
KVIH 162353Z AUTO 00000KT 10SM CLR 12/05 A3030 RMK AO2 SLP262 T01170050 10189 20117 56007 $
KVIH 162253Z AUTO 00000KT 10SM CLR 17/03 A3030 RMK AO2 SLP260 T01720028 $
KVIH 162153Z AUTO VRB04KT 9SM CLR 18/02 A3030 RMK AO2 SLP262 T01830022 $
KVIH 162053Z AUTO VRB04KT 10SM CLR 19/02 A3032 RMK AO2 SLP266 T01890022 56025 $
KVIH 161953Z AUTO 32007KT 10SM CLR 18/02 A3034 RMK AO2 SLP273 T01830017 $
KVIH 161853Z AUTO 00000KT 10SM CLR 18/02 A3036 RMK AO2 SLP281 T01780017 $
KVIH 161753Z AUTO VRB03KT 10SM CLR 16/00 A3040 RMK AO2 SLP293 T01610000 10172 20039 58009 $
KVIH 161653Z AUTO 00000KT 10SM CLR 16/02 A3042 RMK AO2 SLP301 T01560022 $
KVIH 161553Z AUTO 00000KT 10SM CLR 14/03 A3043 RMK AO2 SLP305 T01440028 $
KVIH 161453Z AUTO 00000KT 10SM CLR 12/05 A3042 RMK AO2 SLP303 T01220050 53010 $
KVIH 161353Z AUTO 00000KT 10SM CLR 09/06 A3042 RMK AO2 SLP301 T00890061 $
KVIH 161253Z AUTO 00000KT 10SM CLR 06/04 A3040 RMK AO2 SLP297 T00560039 $
KVIH 161153Z AUTO 00000KT 10SM CLR 04/04 A3039 RMK AO2 SLP295 T00390039 10072 20033 53008 $
KVIH 161053Z AUTO 23003KT 10SM CLR 04/04 A3039 RMK AO2 SLP291 T00440039 $
KVIH 160953Z AUTO 00000KT 10SM CLR 04/03 A3037 RMK AO2 SLP285 T00390033 $
KVIH 160853Z AUTO 00000KT 10SM CLR 05/04 A3037 RMK AO2 SLP284 T00500039 51005 PWINO $
KVIH 160753Z AUTO 00000KT 10SM CLR 06/04 A3037 RMK AO2 SLP283 T00560044 PWINO $
KVIH 160653Z AUTO 31004KT 10SM CLR 07/05 A3036 RMK AO2 SLP280 T00720050 $
KVIH 160553Z AUTO 30003KT 10SM CLR 07/05 A3035 RMK AO2 SLP279 T00670050 10111 20067 402280067 50004 $
KVIH 160453Z AUTO 30003KT 10SM CLR 08/06 A3035 RMK AO2 SLP279 T00780056 $
KVIH 160353Z AUTO 00000KT 10SM CLR 08/05 A3035 RMK AO2 SLP278 T00780050 $
KVIH 160253Z AUTO 00000KT 10SM CLR 08/06 A3034 RMK AO2 SLP276 T00830056 51017 $
KVIH 160153Z AUTO 33005KT 10SM CLR 10/06 A3033 RMK AO2 SLP269 T01000056 $
KVIH 160053Z AUTO 32005KT 10SM CLR 10/06 A3031 RMK AO2 SLP264 T01000056 $
KVIH 152353Z AUTO 32006KT 10SM CLR 11/06 A3029 RMK AO2 SLP257 60000 T01110056 10161 20111 53007 $
KVIH 152253Z AUTO 31010KT 10SM CLR 14/06 A3028 RMK AO2 SLP252 T01390061 $
KVIH 152153Z AUTO 32010KT 10SM CLR 15/06 A3027 RMK AO2 SLP247 T01500061 $
KVIH 152053Z AUTO 33010KT 10SM FEW037 15/06 A3026 RMK AO2 SLP245 60000 T01500061 53001 $
KVIH 151953Z AUTO 32011KT 10SM FEW037 16/07 A3025 RMK AO2 RAB27E40 SLP239 P0000 T01610072 $